createdAt,value
2017-02-07T00:00:19.664Z,0
2017-02-07T00:01:20.196Z,0
2017-02-07T00:02:20.731Z,0
2017-02-07T00:03:21.131Z,0
2017-02-07T00:04:21.659Z,0
2017-02-07T00:05:22.337Z,0
2017-02-07T00:06:22.725Z,0
2017-02-07T00:07:23.265Z,0
2017-02-07T00:08:23.777Z,0
2017-02-07T00:09:24.450Z,0
2017-02-07T00:10:25.135Z,0
2017-02-07T00:11:25.373Z,0
2017-02-07T00:12:25.902Z,0
2017-02-07T00:13:26.577Z,0
2017-02-07T00:14:26.956Z,0
2017-02-07T00:15:27.484Z,0
2017-02-07T00:16:28.012Z,0
2017-02-07T00:17:28.554Z,0
2017-02-07T00:18:29.076Z,0
2017-02-07T00:19:29.610Z,0
2017-02-07T00:20:30.133Z,0
2017-02-07T00:21:30.814Z,0
2017-02-07T00:22:31.195Z,0
2017-02-07T00:23:31.715Z,0
2017-02-07T00:24:32.252Z,0
2017-02-07T00:25:32.778Z,0
2017-02-07T00:26:33.310Z,0
2017-02-07T00:27:33.990Z,0
2017-02-07T00:28:34.376Z,0
2017-02-07T00:29:34.908Z,0
2017-02-07T00:30:35.578Z,0
2017-02-07T00:31:36.105Z,0
2017-02-07T00:32:36.504Z,0
2017-02-07T00:33:37.171Z,0
2017-02-07T00:34:37.547Z,0
2017-02-07T00:35:38.089Z,0
2017-02-07T00:36:38.755Z,0
2017-02-07T00:37:39.149Z,0
2017-02-07T00:38:39.668Z,0
2017-02-07T00:39:40.200Z,0
2017-02-07T00:40:40.725Z,0
2017-02-07T00:41:41.404Z,0
2017-02-07T00:42:41.785Z,0
2017-02-07T00:43:42.321Z,0
2017-02-07T00:44:42.851Z,0
2017-02-07T00:45:43.390Z,0
2017-02-07T00:46:43.928Z,0
2017-02-07T00:47:44.469Z,0
2017-02-07T00:48:44.988Z,0
2017-02-07T00:49:45.666Z,0
2017-02-07T00:50:46.194Z,0
2017-02-07T00:51:46.586Z,0
2017-02-07T00:52:47.112Z,0
2017-02-07T00:53:47.787Z,0
2017-02-07T00:54:48.170Z,0
2017-02-07T00:55:48.844Z,0
2017-02-07T00:56:49.223Z,0
2017-02-07T00:57:49.764Z,0
2017-02-07T00:58:50.285Z,0
2017-02-07T00:59:50.829Z,0
2017-02-07T01:00:51.352Z,0
2017-02-07T01:01:52.018Z,0
2017-02-07T01:02:52.403Z,0
2017-02-07T01:03:52.923Z,0
2017-02-07T01:04:53.460Z,0
2017-02-07T01:05:54.002Z,0
2017-02-07T01:06:54.530Z,0
2017-02-07T01:07:55.056Z,0
2017-02-07T01:08:55.582Z,0
2017-02-07T01:09:56.256Z,0
2017-02-07T01:10:56.640Z,0
2017-02-07T01:11:57.179Z,0
2017-02-07T01:12:57.705Z,0
2017-02-07T01:13:58.246Z,0
2017-02-07T01:14:58.761Z,0
2017-02-07T01:15:59.438Z,0
2017-02-07T01:16:59.820Z,0
2017-02-07T01:18:00.347Z,0
2017-02-07T01:19:01.022Z,0
2017-02-07T01:20:01.417Z,0
2017-02-07T01:21:01.939Z,0
2017-02-07T01:22:02.469Z,0
2017-02-07T01:23:02.997Z,0
2017-02-07T01:24:03.676Z,0
2017-02-07T01:25:04.062Z,0
2017-02-07T01:26:04.602Z,0
2017-02-07T01:27:05.127Z,0
2017-02-07T01:28:05.813Z,0
2017-02-07T01:29:06.339Z,0
2017-02-07T01:30:07.024Z,0
2017-02-07T01:31:07.403Z,0
2017-02-07T01:32:07.935Z,0
2017-02-07T01:33:08.320Z,0
2017-02-07T01:34:08.998Z,0
2017-02-07T01:35:09.385Z,0
2017-02-07T01:36:10.060Z,0
2017-02-07T01:37:10.440Z,0
2017-02-07T01:38:10.966Z,0
2017-02-07T01:39:11.502Z,0
2017-02-07T01:40:12.034Z,0
2017-02-07T01:41:12.561Z,0
2017-02-07T01:42:13.090Z,0
2017-02-07T01:43:13.623Z,0
2017-02-07T01:44:14.149Z,0
2017-02-07T01:45:14.686Z,0
2017-02-07T01:46:15.223Z,0
2017-02-07T01:47:15.751Z,0
2017-02-07T01:48:16.279Z,0
2017-02-07T01:49:16.802Z,0
2017-02-07T01:50:17.341Z,0
2017-02-07T01:51:17.871Z,0
2017-02-07T01:52:18.392Z,0
2017-02-07T01:53:19.067Z,0
2017-02-07T01:54:19.462Z,0
2017-02-07T01:55:19.979Z,0
2017-02-07T01:56:20.657Z,0
2017-02-07T01:57:21.037Z,0
2017-02-07T01:58:21.716Z,0
2017-02-07T01:59:22.097Z,0
2017-02-07T02:00:22.631Z,0
2017-02-07T02:01:23.302Z,0
2017-02-07T02:02:23.695Z,0
2017-02-07T02:03:24.227Z,0
2017-02-07T02:04:24.891Z,0
2017-02-07T02:05:25.279Z,0
2017-02-07T02:06:25.813Z,0
2017-02-07T02:07:26.345Z,0
2017-02-07T02:08:26.874Z,0
2017-02-07T02:09:27.419Z,0
2017-02-07T02:10:28.085Z,0
2017-02-07T02:11:28.466Z,0
2017-02-07T02:12:29.004Z,0
2017-02-07T02:13:29.545Z,0
2017-02-07T02:14:30.063Z,0
2017-02-07T02:15:30.588Z,0
2017-02-07T02:16:31.131Z,0
2017-02-07T02:17:31.657Z,0
2017-02-07T02:18:32.195Z,0
2017-02-07T02:19:32.716Z,0
2017-02-07T02:20:33.252Z,0
2017-02-07T02:21:33.773Z,0
2017-02-07T02:22:34.443Z,0
2017-02-07T02:23:34.827Z,0
2017-02-07T02:24:35.504Z,0
2017-02-07T02:25:35.888Z,0
2017-02-07T02:26:36.420Z,0
2017-02-07T02:27:36.943Z,0
2017-02-07T02:28:37.481Z,0
2017-02-07T02:29:38.016Z,0
2017-02-07T02:30:38.548Z,0
2017-02-07T02:31:39.072Z,0
2017-02-07T02:32:39.746Z,0
2017-02-07T02:33:40.294Z,0
2017-02-07T02:34:40.811Z,0
2017-02-07T02:35:41.192Z,0
2017-02-07T02:36:41.723Z,0
2017-02-07T02:37:42.394Z,0
2017-02-07T02:38:42.927Z,0
2017-02-07T02:39:43.311Z,0
2017-02-07T02:40:43.857Z,0
2017-02-07T02:41:44.371Z,0
2017-02-07T02:42:45.046Z,0
2017-02-07T02:43:45.430Z,0
2017-02-07T02:44:45.967Z,0
2017-02-07T02:45:46.483Z,0
2017-02-07T02:46:47.020Z,0
2017-02-07T02:47:47.552Z,0
2017-02-07T02:48:48.078Z,0
2017-02-07T02:49:50.418Z,0
2017-02-07T02:50:49.284Z,0
2017-02-07T02:51:49.815Z,0
2017-02-07T02:52:50.204Z,0
2017-02-07T02:53:50.736Z,0
2017-02-07T02:54:51.416Z,0
2017-02-07T02:55:51.794Z,0
2017-02-07T02:56:52.330Z,0
2017-02-07T02:57:52.859Z,0
2017-02-07T02:58:53.385Z,0
2017-02-07T02:59:53.916Z,0
2017-02-07T03:00:54.455Z,0
2017-02-07T03:01:54.974Z,0
2017-02-07T03:02:55.504Z,0
2017-02-07T03:03:56.039Z,0
2017-02-07T03:04:56.575Z,0
2017-02-07T03:05:57.103Z,0
2017-02-07T03:06:57.640Z,0
2017-02-07T03:07:58.170Z,0
2017-02-07T03:08:58.691Z,0
2017-02-07T03:09:59.222Z,0
2017-02-07T03:10:59.762Z,0
2017-02-07T03:12:00.284Z,0
2017-02-07T03:13:00.966Z,0
2017-02-07T03:14:01.353Z,0
2017-02-07T03:15:01.893Z,0
2017-02-07T03:16:02.406Z,0
2017-02-07T03:17:02.951Z,0
2017-02-07T03:18:03.469Z,0
2017-02-07T03:19:04.003Z,0
2017-02-07T03:20:04.679Z,0
2017-02-07T03:21:05.066Z,0
2017-02-07T03:22:05.592Z,0
2017-02-07T03:23:06.125Z,0
2017-02-07T03:24:06.658Z,0
2017-02-07T03:25:07.185Z,0
2017-02-07T03:26:07.712Z,0
2017-02-07T03:27:08.245Z,0
2017-02-07T03:28:08.765Z,0
2017-02-07T03:29:09.598Z,0
2017-02-07T03:30:09.838Z,0
2017-02-07T03:31:10.512Z,0
2017-02-07T03:32:11.053Z,0
2017-02-07T03:33:11.441Z,0
2017-02-07T03:34:12.115Z,0
2017-02-07T03:35:12.649Z,0
2017-02-07T03:36:13.033Z,0
2017-02-07T03:37:13.559Z,0
2017-02-07T03:38:14.089Z,0
2017-02-07T03:39:14.764Z,0
2017-02-07T03:40:15.170Z,0
2017-02-07T03:41:15.676Z,0
2017-02-07T03:42:16.350Z,0
2017-02-07T03:43:16.888Z,0
2017-02-07T03:44:17.264Z,0
2017-02-07T03:45:17.794Z,0
2017-02-07T03:46:18.328Z,0
2017-02-07T03:47:19.004Z,0
2017-02-07T03:48:19.537Z,0
2017-02-07T03:49:19.923Z,0
2017-02-07T03:50:20.452Z,0
2017-02-07T03:51:20.988Z,0
2017-02-07T03:52:21.656Z,0
2017-02-07T03:53:22.048Z,0
2017-02-07T03:54:22.566Z,0
2017-02-07T03:55:23.114Z,0
2017-02-07T03:56:23.773Z,0
2017-02-07T03:57:24.173Z,0
2017-02-07T03:58:24.837Z,0
2017-02-07T03:59:25.223Z,0
2017-02-07T04:00:25.752Z,0
2017-02-07T04:01:26.277Z,0
2017-02-07T04:02:26.810Z,0
2017-02-07T04:03:27.347Z,0
2017-02-07T04:04:27.872Z,0
2017-02-07T04:05:28.408Z,0
2017-02-07T04:06:28.936Z,0
2017-02-07T04:07:29.614Z,0
2017-02-07T04:08:29.994Z,0
2017-02-07T04:09:30.682Z,0
2017-02-07T04:10:31.210Z,0
2017-02-07T04:11:31.594Z,0
2017-02-07T04:12:32.119Z,0
2017-02-07T04:13:32.808Z,0
2017-02-07T04:14:33.191Z,0
2017-02-07T04:15:33.735Z,0
2017-02-07T04:16:34.265Z,0
2017-02-07T04:17:34.801Z,0
2017-02-07T04:18:35.324Z,0
2017-02-07T04:19:35.863Z,0
2017-02-07T04:20:36.379Z,0
2017-02-07T04:21:36.901Z,0
2017-02-07T04:22:37.448Z,0
2017-02-07T04:23:38.121Z,0
2017-02-07T04:24:38.511Z,0
2017-02-07T04:25:39.036Z,0
2017-02-07T04:26:39.559Z,0
2017-02-07T04:27:40.090Z,0
2017-02-07T04:28:40.622Z,0
2017-02-07T04:29:41.161Z,0
2017-02-07T04:30:41.720Z,0
2017-02-07T04:31:42.211Z,0
2017-02-07T04:32:42.747Z,0
2017-02-07T04:33:43.287Z,0
2017-02-07T04:34:43.806Z,0
2017-02-07T04:35:44.356Z,0
2017-02-07T04:36:44.867Z,0
2017-02-07T04:37:45.411Z,0
2017-02-07T04:38:45.931Z,0
2017-02-07T04:39:46.468Z,0
2017-02-07T04:40:46.997Z,0
2017-02-07T04:41:47.533Z,0
2017-02-07T04:42:48.053Z,0
2017-02-07T04:43:48.733Z,0
2017-02-07T04:44:49.120Z,0
2017-02-07T04:45:49.652Z,0
2017-02-07T04:46:50.175Z,0
2017-02-07T04:47:50.700Z,0
2017-02-07T04:48:51.381Z,0
2017-02-07T04:49:51.917Z,0
2017-02-07T04:50:52.301Z,0
2017-02-07T04:51:52.827Z,0
2017-02-07T04:52:53.359Z,0
2017-02-07T04:53:53.889Z,0
2017-02-07T04:54:54.565Z,0
2017-02-07T04:55:54.954Z,0
2017-02-07T04:56:55.488Z,0
2017-02-07T04:57:56.028Z,0
2017-02-07T04:58:56.558Z,0
2017-02-07T04:59:57.094Z,0
2017-02-07T05:00:57.625Z,0
2017-02-07T05:01:58.194Z,0
2017-02-07T05:02:58.687Z,0
2017-02-07T05:03:59.222Z,0
2017-02-07T05:04:59.890Z,0
2017-02-07T05:06:00.283Z,0
2017-02-07T05:07:00.810Z,0
2017-02-07T05:08:01.362Z,0
2017-02-07T05:09:01.864Z,0
2017-02-07T05:10:02.400Z,0
2017-02-07T05:11:02.932Z,0
2017-02-07T05:12:03.457Z,0
2017-02-07T05:13:03.989Z,0
2017-02-07T05:14:04.518Z,0
2017-02-07T05:15:05.061Z,0
2017-02-07T05:16:05.593Z,0
2017-02-07T05:17:06.271Z,0
2017-02-07T05:18:06.658Z,0
2017-02-07T05:19:07.190Z,0
2017-02-07T05:20:07.720Z,0
2017-02-07T05:21:08.248Z,0
2017-02-07T05:22:08.791Z,0
2017-02-07T05:23:09.306Z,0
2017-02-07T05:24:09.875Z,0
2017-02-07T05:25:10.372Z,0
2017-02-07T05:26:10.913Z,0
2017-02-07T05:27:11.436Z,0
2017-02-07T05:28:12.124Z,0
2017-02-07T05:29:12.499Z,0
2017-02-07T05:30:13.064Z,0
2017-02-07T05:31:13.553Z,0
2017-02-07T05:32:14.087Z,0
2017-02-07T05:33:14.614Z,0
2017-02-07T05:34:15.147Z,0
2017-02-07T05:35:15.674Z,0
2017-02-07T05:36:16.204Z,0
2017-02-07T05:37:16.750Z,0
2017-02-07T05:38:17.283Z,0
2017-02-07T05:39:17.818Z,0
2017-02-07T05:40:18.358Z,0
2017-02-07T05:41:18.884Z,0
2017-02-07T05:42:19.429Z,0
2017-02-07T05:43:20.097Z,0
2017-02-07T05:44:20.499Z,0
2017-02-07T05:45:21.013Z,0
2017-02-07T05:46:21.692Z,0
2017-02-07T05:47:22.080Z,0
2017-02-07T05:48:22.607Z,0
2017-02-07T05:49:23.140Z,0
2017-02-07T05:50:23.675Z,0
2017-02-07T05:51:24.195Z,0
2017-02-07T05:52:24.724Z,0
2017-02-07T05:53:25.247Z,0
2017-02-07T05:54:25.937Z,0
2017-02-07T05:55:26.322Z,0
2017-02-07T05:56:27.002Z,0
2017-02-07T05:57:27.389Z,0
2017-02-07T05:58:28.065Z,0
2017-02-07T05:59:28.446Z,0
2017-02-07T06:00:28.980Z,0
2017-02-07T06:01:29.505Z,0
2017-02-07T06:02:30.038Z,0
2017-02-07T06:03:30.566Z,0
2017-02-07T06:04:31.254Z,0
2017-02-07T06:05:31.630Z,0
2017-02-07T06:06:32.162Z,0
2017-02-07T06:07:32.884Z,0
2017-02-07T06:08:33.245Z,0
2017-02-07T06:09:33.753Z,0
2017-02-07T06:10:34.430Z,0
2017-02-07T06:11:34.809Z,0
2017-02-07T06:12:35.352Z,0
2017-02-07T06:13:35.872Z,0
2017-02-07T06:14:36.441Z,0
2017-02-07T06:15:36.936Z,0
2017-02-07T06:16:37.476Z,0
2017-02-07T06:17:37.994Z,0
2017-02-07T06:18:38.542Z,0
2017-02-07T06:19:39.058Z,0
2017-02-07T06:20:39.598Z,0
2017-02-07T06:21:40.274Z,0
2017-02-07T06:22:40.809Z,0
2017-02-07T06:23:41.197Z,0
2017-02-07T06:24:41.874Z,0
2017-02-07T06:25:42.255Z,0
2017-02-07T06:26:42.813Z,0
2017-02-07T06:27:43.329Z,0
2017-02-07T06:28:43.856Z,0
2017-02-07T06:29:44.532Z,0
2017-02-07T06:30:45.073Z,0
2017-02-07T06:31:45.455Z,0
2017-02-07T06:32:46.014Z,0
2017-02-07T06:33:46.506Z,0
2017-02-07T06:34:47.191Z,0
2017-02-07T06:35:47.576Z,0
2017-02-07T06:36:48.103Z,0
2017-02-07T06:37:48.636Z,5
2017-02-07T06:38:49.314Z,5
2017-02-07T06:39:49.700Z,5
2017-02-07T06:40:50.381Z,5
2017-02-07T06:41:50.763Z,5
2017-02-07T06:42:51.300Z,5
2017-02-07T06:43:51.818Z,5
2017-02-07T06:44:52.347Z,11
2017-02-07T06:45:52.876Z,11
2017-02-07T06:46:53.562Z,11
2017-02-07T06:47:54.265Z,11
2017-02-07T06:48:54.467Z,11
2017-02-07T06:49:55.146Z,16
2017-02-07T06:50:55.680Z,16
2017-02-07T06:51:56.205Z,16
2017-02-07T06:52:56.591Z,16
2017-02-07T06:53:57.122Z,22
2017-02-07T06:54:57.640Z,28
2017-02-07T06:55:58.175Z,28
2017-02-07T06:56:58.710Z,33
2017-02-07T06:57:59.230Z,33
2017-02-07T06:58:59.915Z,33
2017-02-07T07:00:00.439Z,33
2017-02-07T07:01:00.818Z,39
2017-02-07T07:02:01.356Z,45
2017-02-07T07:03:01.892Z,50
2017-02-07T07:04:02.428Z,56
2017-02-07T07:05:03.111Z,56
2017-02-07T07:06:03.493Z,61
2017-02-07T07:07:04.026Z,61
2017-02-07T07:08:04.558Z,61
2017-02-07T07:09:05.084Z,61
2017-02-07T07:10:05.621Z,61
2017-02-07T07:11:06.143Z,67
2017-02-07T07:12:06.682Z,67
2017-02-07T07:13:07.214Z,73
2017-02-07T07:14:07.741Z,78
2017-02-07T07:15:08.276Z,84
2017-02-07T07:16:08.824Z,84
2017-02-07T07:17:09.330Z,90
2017-02-07T07:18:09.859Z,95
2017-02-07T07:19:10.416Z,101
2017-02-07T07:20:10.928Z,106
2017-02-07T07:21:11.458Z,112
2017-02-07T07:22:11.982Z,112
2017-02-07T07:23:12.525Z,112
2017-02-07T07:24:13.051Z,112
2017-02-07T07:25:13.591Z,112
2017-02-07T07:26:14.116Z,112
2017-02-07T07:27:14.789Z,118
2017-02-07T07:28:15.314Z,129
2017-02-07T07:29:15.993Z,135
2017-02-07T07:30:16.231Z,140
2017-02-07T07:31:16.767Z,140
2017-02-07T07:32:17.288Z,140
2017-02-07T07:33:17.830Z,135
2017-02-07T07:34:18.349Z,129
2017-02-07T07:35:19.021Z,129
2017-02-07T07:36:19.410Z,123
2017-02-07T07:37:19.942Z,112
2017-02-07T07:38:20.464Z,118
2017-02-07T07:39:20.996Z,123
2017-02-07T07:40:21.530Z,129
2017-02-07T07:41:22.058Z,140
2017-02-07T07:42:22.587Z,140
2017-02-07T07:43:23.119Z,135
2017-02-07T07:44:23.653Z,135
2017-02-07T07:45:24.332Z,140
2017-02-07T07:46:24.869Z,146
2017-02-07T07:47:25.403Z,157
2017-02-07T07:48:25.786Z,163
2017-02-07T07:49:26.308Z,163
2017-02-07T07:50:26.847Z,163
2017-02-07T07:51:27.518Z,151
2017-02-07T07:52:27.916Z,157
2017-02-07T07:53:28.449Z,163
2017-02-07T07:54:28.964Z,168
2017-02-07T07:55:29.494Z,185
2017-02-07T07:56:30.028Z,196
2017-02-07T07:57:30.710Z,208
2017-02-07T07:58:31.091Z,230
2017-02-07T07:59:31.616Z,241
2017-02-07T08:00:32.147Z,241
2017-02-07T08:01:32.677Z,264
2017-02-07T08:02:33.208Z,292
2017-02-07T08:03:33.746Z,298
2017-02-07T08:04:34.271Z,320
2017-02-07T08:05:34.807Z,337
2017-02-07T08:06:35.337Z,360
2017-02-07T08:07:35.865Z,360
2017-02-07T08:08:36.472Z,331
2017-02-07T08:09:36.923Z,326
2017-02-07T08:10:37.453Z,331
2017-02-07T08:11:37.986Z,343
2017-02-07T08:12:38.518Z,354
2017-02-07T08:13:39.048Z,354
2017-02-07T08:14:39.589Z,337
2017-02-07T08:15:40.101Z,337
2017-02-07T08:16:40.633Z,331
2017-02-07T08:17:41.167Z,320
2017-02-07T08:18:41.693Z,303
2017-02-07T08:19:42.221Z,292
2017-02-07T08:20:42.760Z,286
2017-02-07T08:21:43.304Z,281
2017-02-07T08:22:43.817Z,281
2017-02-07T08:23:44.347Z,298
2017-02-07T08:24:44.877Z,315
2017-02-07T08:25:45.552Z,315
2017-02-07T08:26:45.938Z,331
2017-02-07T08:27:46.468Z,337
2017-02-07T08:28:47.014Z,343
2017-02-07T08:29:47.544Z,337
2017-02-07T08:30:48.076Z,337
2017-02-07T08:31:48.645Z,303
2017-02-07T08:32:49.141Z,292
2017-02-07T08:33:49.667Z,275
2017-02-07T08:34:50.195Z,253
2017-02-07T08:35:50.722Z,247
2017-02-07T08:36:51.407Z,253
2017-02-07T08:37:51.796Z,253
2017-02-07T08:38:52.464Z,258
2017-02-07T08:39:52.998Z,258
2017-02-07T08:40:53.526Z,264
2017-02-07T08:41:53.911Z,275
2017-02-07T08:42:54.442Z,275
2017-02-07T08:43:54.976Z,286
2017-02-07T08:44:55.502Z,292
2017-02-07T08:45:56.033Z,298
2017-02-07T08:46:56.560Z,315
2017-02-07T08:47:57.269Z,343
2017-02-07T08:48:57.622Z,360
2017-02-07T08:49:58.147Z,376
2017-02-07T08:50:58.827Z,388
2017-02-07T08:51:59.223Z,371
2017-02-07T08:52:59.743Z,371
2017-02-07T08:54:00.304Z,382
2017-02-07T08:55:00.802Z,405
2017-02-07T08:56:01.355Z,410
2017-02-07T08:57:01.880Z,410
2017-02-07T08:58:02.389Z,410
2017-02-07T08:59:02.926Z,416
2017-02-07T09:00:03.478Z,421
2017-02-07T09:01:03.987Z,427
2017-02-07T09:02:04.519Z,438
2017-02-07T09:03:05.197Z,438
2017-02-07T09:04:05.730Z,455
2017-02-07T09:05:06.116Z,461
2017-02-07T09:06:06.644Z,466
2017-02-07T09:07:07.171Z,472
2017-02-07T09:08:07.703Z,483
2017-02-07T09:09:08.242Z,500
2017-02-07T09:10:08.772Z,506
2017-02-07T09:11:09.313Z,511
2017-02-07T09:12:09.843Z,534
2017-02-07T09:13:10.377Z,562
2017-02-07T09:14:10.901Z,568
2017-02-07T09:15:11.432Z,556
2017-02-07T09:16:11.962Z,573
2017-02-07T09:17:12.495Z,596
2017-02-07T09:18:13.037Z,601
2017-02-07T09:19:13.558Z,607
2017-02-07T09:20:14.083Z,618
2017-02-07T09:21:14.615Z,613
2017-02-07T09:22:15.149Z,618
2017-02-07T09:23:15.678Z,613
2017-02-07T09:24:16.358Z,601
2017-02-07T09:25:16.741Z,613
2017-02-07T09:26:17.271Z,624
2017-02-07T09:27:17.818Z,618
2017-02-07T09:28:18.333Z,607
2017-02-07T09:29:18.868Z,607
2017-02-07T09:30:19.398Z,613
2017-02-07T09:31:19.929Z,613
2017-02-07T09:32:20.454Z,613
2017-02-07T09:33:20.985Z,601
2017-02-07T09:34:21.517Z,601
2017-02-07T09:35:22.054Z,613
2017-02-07T09:36:22.575Z,618
2017-02-07T09:37:23.111Z,630
2017-02-07T09:38:23.638Z,635
2017-02-07T09:39:24.167Z,635
2017-02-07T09:40:24.699Z,635
2017-02-07T09:41:25.374Z,658
2017-02-07T09:42:25.762Z,675
2017-02-07T09:43:26.294Z,658
2017-02-07T09:44:26.975Z,658
2017-02-07T09:45:27.358Z,669
2017-02-07T09:46:27.887Z,675
2017-02-07T09:47:28.414Z,663
2017-02-07T09:48:28.947Z,646
2017-02-07T09:49:29.484Z,607
2017-02-07T09:50:30.163Z,573
2017-02-07T09:51:30.544Z,556
2017-02-07T09:52:31.232Z,540
2017-02-07T09:53:31.614Z,523
2017-02-07T09:54:32.150Z,517
2017-02-07T09:55:32.681Z,511
2017-02-07T09:56:33.219Z,511
2017-02-07T09:57:33.740Z,528
2017-02-07T09:58:34.267Z,545
2017-02-07T09:59:34.799Z,562
2017-02-07T10:00:35.333Z,613
2017-02-07T10:01:35.857Z,663
2017-02-07T10:02:36.537Z,703
2017-02-07T10:03:36.912Z,697
2017-02-07T10:04:37.453Z,663
2017-02-07T10:05:37.976Z,641
2017-02-07T10:06:38.685Z,652
2017-02-07T10:07:39.037Z,658
2017-02-07T10:08:39.566Z,675
2017-02-07T10:09:40.241Z,669
2017-02-07T10:10:40.632Z,641
2017-02-07T10:11:41.316Z,613
2017-02-07T10:12:41.702Z,613
2017-02-07T10:13:42.245Z,635
2017-02-07T10:14:42.779Z,652
2017-02-07T10:15:43.318Z,652
2017-02-07T10:16:43.852Z,663
2017-02-07T10:17:44.395Z,680
2017-02-07T10:18:44.933Z,675
2017-02-07T10:19:45.463Z,669
2017-02-07T10:20:45.990Z,675
2017-02-07T10:21:46.523Z,652
2017-02-07T10:22:47.052Z,624
2017-02-07T10:23:47.728Z,630
2017-02-07T10:24:48.114Z,641
2017-02-07T10:25:48.644Z,658
2017-02-07T10:26:49.174Z,686
2017-02-07T10:27:49.704Z,731
2017-02-07T10:28:50.388Z,725
2017-02-07T10:29:50.768Z,703
2017-02-07T10:31:52.025Z,753
2017-02-07T10:32:52.369Z,793
2017-02-07T10:33:52.907Z,781
2017-02-07T10:34:53.445Z,759
2017-02-07T10:35:53.977Z,759
2017-02-07T10:36:54.511Z,753
2017-02-07T10:37:55.041Z,742
2017-02-07T10:38:55.568Z,691
2017-02-07T10:39:56.100Z,663
2017-02-07T10:40:56.635Z,675
2017-02-07T10:41:57.161Z,691
2017-02-07T10:42:57.693Z,697
2017-02-07T10:43:58.222Z,731
2017-02-07T10:44:58.898Z,810
2017-02-07T10:45:59.278Z,832
2017-02-07T10:46:59.807Z,821
2017-02-07T10:48:00.485Z,748
2017-02-07T10:49:01.020Z,691
2017-02-07T10:50:01.403Z,680
2017-02-07T10:51:01.941Z,669
2017-02-07T10:52:02.608Z,641
2017-02-07T10:53:02.990Z,635
2017-02-07T10:54:03.521Z,686
2017-02-07T10:55:04.053Z,703
2017-02-07T10:56:04.584Z,703
2017-02-07T10:57:05.118Z,697
2017-02-07T10:58:05.649Z,669
2017-02-07T10:59:06.177Z,646
2017-02-07T11:00:06.713Z,646
2017-02-07T11:01:07.236Z,675
2017-02-07T11:02:07.767Z,680
2017-02-07T11:03:08.299Z,680
2017-02-07T11:04:08.832Z,680
2017-02-07T11:05:09.358Z,652
2017-02-07T11:06:09.890Z,658
2017-02-07T11:07:10.420Z,663
2017-02-07T11:08:10.953Z,630
2017-02-07T11:09:11.489Z,630
2017-02-07T11:10:12.025Z,641
2017-02-07T11:11:12.546Z,646
2017-02-07T11:12:13.077Z,658
2017-02-07T11:13:13.608Z,652
2017-02-07T11:14:14.147Z,630
2017-02-07T11:15:14.679Z,630
2017-02-07T11:16:15.366Z,624
2017-02-07T11:17:15.764Z,630
2017-02-07T11:18:16.284Z,669
2017-02-07T11:19:16.824Z,720
2017-02-07T11:20:17.347Z,714
2017-02-07T11:21:18.024Z,680
2017-02-07T11:22:18.411Z,646
2017-02-07T11:23:18.939Z,630
2017-02-07T11:24:19.479Z,630
2017-02-07T11:25:20.155Z,658
2017-02-07T11:26:20.541Z,663
2017-02-07T11:27:21.219Z,652
2017-02-07T11:28:21.596Z,624
2017-02-07T11:29:22.157Z,635
2017-02-07T11:30:22.658Z,630
2017-02-07T11:31:23.335Z,624
2017-02-07T11:32:23.716Z,630
2017-02-07T11:33:24.241Z,652
2017-02-07T11:34:24.776Z,669
2017-02-07T11:35:25.306Z,669
2017-02-07T11:36:25.837Z,669
2017-02-07T11:38:26.894Z,736
2017-02-07T11:39:27.427Z,765
2017-02-07T11:40:27.959Z,776
2017-02-07T11:41:28.524Z,753
2017-02-07T11:42:29.022Z,793
2017-02-07T11:43:29.701Z,770
2017-02-07T11:44:30.082Z,742
2017-02-07T11:45:30.616Z,720
2017-02-07T11:46:31.156Z,697
2017-02-07T11:47:31.674Z,663
2017-02-07T11:48:32.209Z,652
2017-02-07T11:49:32.883Z,652
2017-02-07T11:50:33.408Z,675
2017-02-07T11:51:33.789Z,720
2017-02-07T11:52:34.325Z,720
2017-02-07T11:53:34.860Z,691
2017-02-07T11:54:35.383Z,663
2017-02-07T11:55:35.906Z,646
2017-02-07T11:56:36.592Z,596
2017-02-07T11:57:36.977Z,545
2017-02-07T11:58:37.536Z,528
2017-02-07T11:59:38.199Z,540
2017-02-07T12:00:38.581Z,585
2017-02-07T12:01:39.263Z,630
2017-02-07T12:02:39.650Z,663
2017-02-07T12:03:40.324Z,697
2017-02-07T12:04:40.706Z,708
2017-02-07T12:05:41.384Z,731
2017-02-07T12:06:41.916Z,753
2017-02-07T12:07:42.299Z,753
2017-02-07T12:08:42.827Z,708
2017-02-07T12:09:43.353Z,663
2017-02-07T12:10:43.888Z,641
2017-02-07T12:11:44.445Z,618
2017-02-07T12:12:44.949Z,613
2017-02-07T12:13:45.480Z,630
2017-02-07T12:14:46.010Z,618
2017-02-07T12:15:46.540Z,618
2017-02-07T12:16:47.073Z,618
2017-02-07T12:17:47.604Z,607
2017-02-07T12:18:48.137Z,596
2017-02-07T12:19:48.663Z,585
2017-02-07T12:20:49.195Z,579
2017-02-07T12:21:49.727Z,540
2017-02-07T12:22:50.402Z,506
2017-02-07T12:23:50.785Z,489
2017-02-07T12:24:51.316Z,478
2017-02-07T12:25:51.997Z,455
2017-02-07T12:26:52.381Z,450
2017-02-07T12:27:52.909Z,466
2017-02-07T12:28:53.435Z,478
2017-02-07T12:29:53.967Z,489
2017-02-07T12:30:54.643Z,489
2017-02-07T12:31:55.060Z,489
2017-02-07T12:32:55.555Z,489
2017-02-07T12:33:56.091Z,472
2017-02-07T12:34:56.618Z,461
2017-02-07T12:35:57.302Z,455
2017-02-07T12:36:57.687Z,444
2017-02-07T12:37:58.215Z,421
2017-02-07T12:38:58.750Z,433
2017-02-07T12:39:59.282Z,450
2017-02-07T12:40:59.820Z,444
2017-02-07T12:42:00.355Z,438
2017-02-07T12:43:00.887Z,444
2017-02-07T12:44:01.564Z,455
2017-02-07T12:45:01.944Z,444
2017-02-07T12:46:02.469Z,410
2017-02-07T12:47:03.006Z,393
2017-02-07T12:48:03.535Z,382
2017-02-07T12:49:04.066Z,376
2017-02-07T12:50:04.747Z,365
2017-02-07T12:51:05.128Z,354
2017-02-07T12:52:05.656Z,348
2017-02-07T12:53:06.335Z,343
2017-02-07T12:54:06.718Z,354
2017-02-07T12:55:07.252Z,343
2017-02-07T12:56:07.783Z,360
2017-02-07T12:57:08.314Z,382
2017-02-07T12:58:08.841Z,382
2017-02-07T12:59:09.375Z,382
2017-02-07T13:00:09.907Z,393
2017-02-07T13:01:10.586Z,399
2017-02-07T13:02:10.969Z,399
2017-02-07T13:03:11.501Z,410
2017-02-07T13:04:12.032Z,405
2017-02-07T13:05:12.709Z,388
2017-02-07T13:06:13.245Z,365
2017-02-07T13:07:13.627Z,354
2017-02-07T13:08:14.159Z,343
2017-02-07T13:09:14.687Z,326
2017-02-07T13:10:15.217Z,315
2017-02-07T13:11:15.747Z,292
2017-02-07T13:12:16.282Z,281
2017-02-07T13:13:16.810Z,281
2017-02-07T13:14:17.492Z,270
2017-02-07T13:15:18.049Z,258
2017-02-07T13:16:18.401Z,247
2017-02-07T13:17:18.931Z,247
2017-02-07T13:18:19.458Z,241
2017-02-07T13:19:19.993Z,236
2017-02-07T13:20:20.524Z,236
2017-02-07T13:21:21.210Z,247
2017-02-07T13:22:21.753Z,247
2017-02-07T13:23:22.140Z,241
2017-02-07T13:24:22.669Z,247
2017-02-07T13:25:23.199Z,247
2017-02-07T13:26:23.725Z,241
2017-02-07T13:27:24.408Z,241
2017-02-07T13:28:24.798Z,241
2017-02-07T13:29:25.332Z,241
2017-02-07T13:30:25.862Z,253
2017-02-07T13:31:26.392Z,258
2017-02-07T13:32:26.933Z,253
2017-02-07T13:33:27.456Z,253
2017-02-07T13:34:27.979Z,258
2017-02-07T13:35:28.512Z,253
2017-02-07T13:36:29.192Z,258
2017-02-07T13:37:29.580Z,264
2017-02-07T13:38:30.100Z,286
2017-02-07T13:39:30.635Z,281
2017-02-07T13:40:31.167Z,247
2017-02-07T13:41:31.700Z,230
2017-02-07T13:42:32.222Z,219
2017-02-07T13:43:32.756Z,225
2017-02-07T13:44:33.309Z,230
2017-02-07T13:45:33.963Z,230
2017-02-07T13:46:34.493Z,225
2017-02-07T13:47:34.877Z,219
2017-02-07T13:48:35.562Z,219
2017-02-07T13:49:35.933Z,230
2017-02-07T13:50:36.464Z,219
2017-02-07T13:51:36.996Z,202
2017-02-07T13:52:37.540Z,191
2017-02-07T13:53:38.053Z,185
2017-02-07T13:54:38.879Z,191
2017-02-07T13:55:39.115Z,191
2017-02-07T13:56:39.645Z,191
2017-02-07T13:57:40.177Z,191
2017-02-07T13:58:40.706Z,196
2017-02-07T13:59:41.379Z,191
2017-02-07T14:00:41.764Z,191
2017-02-07T14:01:42.295Z,191
2017-02-07T14:02:42.840Z,191
2017-02-07T14:03:43.364Z,196
2017-02-07T14:04:43.900Z,185
2017-02-07T14:05:44.438Z,191
2017-02-07T14:06:44.965Z,191
2017-02-07T14:07:45.498Z,202
2017-02-07T14:08:46.024Z,196
2017-02-07T14:09:46.553Z,185
2017-02-07T14:10:47.234Z,185
2017-02-07T14:11:47.621Z,196
2017-02-07T14:12:48.295Z,196
2017-02-07T14:13:48.675Z,196
2017-02-07T14:14:49.204Z,202
2017-02-07T14:15:49.877Z,191
2017-02-07T14:16:50.409Z,191
2017-02-07T14:17:50.795Z,196
2017-02-07T14:18:51.326Z,191
2017-02-07T14:19:51.858Z,174
2017-02-07T14:20:52.386Z,168
2017-02-07T14:21:52.919Z,174
2017-02-07T14:22:53.448Z,180
2017-02-07T14:23:53.981Z,174